Terminal Aerodrome Forecast
Issued by NWS Wakefield, VA

Home | Current Version | Previous Version | Text Only | Print | Product List | Glossary On
Versions: 1 2 3 4 5 6 7 8 9 10 11 12 13 14 15 16 17 18 19 20
668
FTUS41 KAKQ 160546 CCA
TAFRIC
TAF COR
KRIC 160546Z 1606/1706 00000KT 4SM BR OVC004
     FM160700 00000KT 3SM BR OVC004
     FM161400 VRB03KT P6SM SCT004 OVC009
     FM161600 VRB03KT P6SM SCT090
     FM162200 VRB03KT P6SM BKN250=

USA.gov is the U.S. government's official web portal to all federal, state and local government web resources and services.